Time;durP1;ratioP1;P1;durP2;ratioP2;P2;SDS_P1;SDS_P2;PMS_P1;PMS_P2;Temp;Humidity;BMP_temperature;BMP_pressure;BME280_temperature;BME280_humidity;BME280_pressure;Samples;Min_cycle;Max_cycle;Signal;HPM_P1;HPM_P2
2020/12/29 00:01:44;;;;;;;46.02;18.52;;;;;;;0.46;100.00;98897.09;1787770;80;20926;-73
2020/12/29 00:04:15;;;;;;;39.78;19.35;;;;;;;0.44;100.00;98877.64;1787824;80;21175;-73
2020/12/29 00:06:54;;;;;;;43.02;18.67;;;;;;;0.46;100.00;98900.33;1787767;80;21940;-76
2020/12/29 00:09:25;;;;;;;41.83;18.82;;;;;;;0.44;100.00;98887.09;1787316;80;21130;-77
2020/12/29 00:11:54;;;;;;;40.00;17.67;;;;;;;0.45;100.00;98891.42;1787879;79;21184;-77
2020/12/29 00:14:23;;;;;;;34.70;16.67;;;;;;;0.45;100.00;98890.06;1787718;80;21018;-75
2020/12/29 00:16:50;;;;;;;39.00;18.02;;;;;;;0.45;100.00;98876.56;1757690;80;21472;-78
2020/12/29 00:19:25;;;;;;;43.90;18.48;;;;;;;0.46;100.00;98880.89;1787734;80;21060;-76
2020/12/29 00:21:52;;;;;;;45.28;18.37;;;;;;;0.45;100.00;98864.95;1787865;80;20993;-78
2020/12/29 00:24:21;;;;;;;39.35;18.85;;;;;;;0.44;100.00;98862.79;1787767;78;21326;-79
2020/12/29 00:26:50;;;;;;;40.30;18.17;;;;;;;0.43;100.00;98865.76;1785339;80;21197;-78
2020/12/29 00:29:18;;;;;;;42.55;18.37;;;;;;;0.42;100.00;98862.25;1787713;80;21056;-76
2020/12/29 00:31:46;;;;;;;39.00;17.92;;;;;;;0.42;100.00;98867.64;1787767;80;20997;-77
2020/12/29 00:34:14;;;;;;;38.10;18.15;;;;;;;0.44;100.00;98866.03;1787758;80;20960;-77
2020/12/29 00:36:42;;;;;;;35.73;16.55;;;;;;;0.44;100.00;98869.55;1787773;80;21367;-77
2020/12/29 00:39:10;;;;;;;38.10;15.60;;;;;;;0.45;100.00;98861.72;1787660;78;20937;-77
2020/12/29 00:41:40;;;;;;;37.53;17.73;;;;;;;0.49;100.00;98851.19;1787742;80;21076;-75
2020/12/29 00:44:07;;;;;;;36.15;16.82;;;;;;;0.50;100.00;98844.17;1787717;80;20913;-77
2020/12/29 00:46:36;;;;;;;39.15;17.37;;;;;;;0.52;100.00;98846.06;1787780;80;21116;-76
2020/12/29 00:49:04;;;;;;;38.88;18.75;;;;;;;0.52;100.00;98866.32;1787669;80;21235;-76
2020/12/29 00:51:32;;;;;;;40.48;17.80;;;;;;;0.50;100.00;98838.77;1787686;80;21036;-77
2020/12/29 00:54:01;;;;;;;37.70;17.60;;;;;;;0.50;100.00;98833.38;1787774;80;20918;-76
2020/12/29 00:56:32;;;;;;;38.58;17.52;;;;;;;0.50;100.00;98836.61;1787715;80;21024;-78
2020/12/29 00:58:59;;;;;;;38.08;16.87;;;;;;;0.49;100.00;98838.50;1787823;80;20910;-77
2020/12/29 01:01:29;;;;;;;38.35;16.70;;;;;;;0.50;100.00;98837.96;1787756;80;21354;-76
2020/12/29 01:04:10;;;;;;;39.27;18.02;;;;;;;0.52;100.00;98845.26;1783113;80;21487;-77
2020/12/29 01:06:39;;;;;;;37.20;16.62;;;;;;;0.51;100.00;98862.53;1787735;80;20918;-77
2020/12/29 01:09:08;;;;;;;39.90;16.62;;;;;;;0.51;100.00;98859.84;1787126;80;20906;-76
2020/12/29 01:11:37;;;;;;;36.40;17.12;;;;;;;0.52;100.00;98851.47;1793548;80;20926;-74
2020/12/29 01:14:05;;;;;;;32.35;14.43;;;;;;;0.54;100.00;98847.16;1793596;80;21131;-74
2020/12/29 01:16:36;;;;;;;27.05;14.43;;;;;;;0.55;100.00;98843.37;1793346;80;21004;-75
2020/12/29 01:19:04;;;;;;;30.97;15.28;;;;;;;0.57;100.00;98846.08;1793550;80;21060;-75
2020/12/29 01:21:31;;;;;;;35.78;15.35;;;;;;;0.60;100.00;98842.81;1793508;80;20882;-75
2020/12/29 01:23:59;;;;;;;36.00;16.97;;;;;;;0.58;100.00;98832.00;1793583;80;20922;-76
2020/12/29 01:26:27;;;;;;;33.50;17.05;;;;;;;0.56;100.00;98820.15;1793518;80;21363;-78
2020/12/29 01:28:55;;;;;;;33.42;14.85;;;;;;;0.55;100.00;98836.08;1793546;80;21103;-75
2020/12/29 01:31:30;;;;;;;29.20;14.87;;;;;;;0.56;100.00;98826.91;1793567;78;21033;-76
2020/12/29 01:33:59;;;;;;;25.10;13.30;;;;;;;0.56;100.00;98825.55;1793571;80;20930;-74
2020/12/29 01:36:27;;;;;;;26.52;13.60;;;;;;;0.59;100.00;98823.62;1793582;80;21048;-76
2020/12/29 01:38:55;;;;;;;29.30;14.40;;;;;;;0.61;100.00;98811.21;1793572;80;21472;-76
2020/12/29 01:41:23;;;;;;;27.35;13.88;;;;;;;0.62;100.00;98827.14;1793481;80;20984;-77
2020/12/29 01:43:51;;;;;;;29.85;14.73;;;;;;;0.62;100.00;98820.39;1793532;80;21000;-76
2020/12/29 01:46:19;;;;;;;29.77;14.60;;;;;;;0.62;100.00;98838.49;1793526;80;20950;-74
2020/12/29 01:48:46;;;;;;;28.25;14.20;;;;;;;0.62;100.00;98839.84;1793535;80;21543;-75
2020/12/29 01:51:15;;;;;;;32.28;13.85;;;;;;;0.61;100.00;98839.03;1793537;80;21417;-73
2020/12/29 01:53:42;;;;;;;26.77;13.00;;;;;;;0.61;100.00;98824.72;1793470;80;21143;-76
2020/12/29 01:56:10;;;;;;;22.90;12.82;;;;;;;0.61;100.00;98828.77;1793586;80;21468;-76
2020/12/29 01:58:40;;;;;;;29.37;13.50;;;;;;;0.62;100.00;98819.58;1793164;80;20897;-75
2020/12/29 02:01:07;;;;;;;25.35;13.62;;;;;;;0.63;100.00;98819.86;1793544;80;21063;-75
2020/12/29 02:03:35;;;;;;;24.72;12.03;;;;;;;0.62;100.00;98801.48;1740357;80;21362;-75
2020/12/29 02:06:02;;;;;;;25.75;12.90;;;;;;;0.62;100.00;98800.14;1765021;80;21040;-75
2020/12/29 02:08:30;;;;;;;25.85;12.60;;;;;;;0.63;100.00;98787.44;1793507;80;21059;-76
2020/12/29 02:10:58;;;;;;;23.50;12.58;;;;;;;0.63;100.00;98776.09;1789961;80;21131;-75
2020/12/29 02:13:25;;;;;;;20.32;11.78;;;;;;;0.64;100.00;98778.26;1787664;80;20954;-75
2020/12/29 02:15:53;;;;;;;20.92;10.68;;;;;;;0.64;100.00;98775.56;1787674;80;21193;-76
2020/12/29 02:18:20;;;;;;;20.50;10.93;;;;;;;0.65;100.00;98777.98;1787550;80;21491;-73
2020/12/29 02:20:48;;;;;;;20.35;10.95;;;;;;;0.68;100.00;98779.88;1787629;80;20890;-72
2020/12/29 02:23:16;;;;;;;21.07;11.10;;;;;;;0.68;100.00;98787.45;1787595;80;20997;-74
2020/12/29 02:25:43;;;;;;;21.80;11.78;;;;;;;0.70;100.00;98780.42;1787677;80;21059;-73
2020/12/29 02:28:11;;;;;;;21.00;10.95;;;;;;;0.69;100.00;98780.16;1787782;80;21424;-73
2020/12/29 02:30:40;;;;;;;19.23;10.98;;;;;;;0.68;100.00;98769.08;1787642;80;21467;-72
2020/12/29 02:33:07;;;;;;;20.82;10.98;;;;;;;0.66;100.00;98781.50;1732949;80;21068;-75
2020/12/29 02:35:36;;;;;;;19.17;10.38;;;;;;;0.65;100.00;98796.90;1787651;80;20973;-75
2020/12/29 02:38:03;;;;;;;20.82;11.03;;;;;;;0.68;100.00;98804.20;1787654;78;21131;-74
2020/12/29 02:40:31;;;;;;;20.08;10.80;;;;;;;0.68;100.00;98808.25;1787761;80;22607;-74
2020/12/29 02:42:59;;;;;;;28.07;12.13;;;;;;;0.68;100.00;98805.55;1787603;80;20937;-74
2020/12/29 02:45:26;;;;;;;20.82;11.28;;;;;;;0.69;100.00;98800.41;1787668;80;20938;-73
2020/12/29 02:47:55;;;;;;;19.48;11.63;;;;;;;0.69;100.00;98786.37;1787625;80;21566;-74
2020/12/29 02:50:22;;;;;;;23.20;11.80;;;;;;;0.68;100.00;98786.63;1787587;80;21143;-75
2020/12/29 02:52:50;;;;;;;21.87;11.68;;;;;;;0.65;100.00;98787.44;1787665;80;21196;-74
2020/12/29 02:55:19;;;;;;;17.48;10.50;;;;;;;0.65;100.00;98786.63;1787652;80;21471;-73
2020/12/29 02:57:47;;;;;;;20.17;10.58;;;;;;;0.65;100.00;98775.29;1787641;80;20933;-73
2020/12/29 03:00:15;;;;;;;20.75;11.08;;;;;;;0.65;100.00;98771.78;1787556;80;20985;-73
2020/12/29 03:02:43;;;;;;;20.43;10.93;;;;;;;0.66;100.00;98778.80;1787636;78;21032;-74
2020/12/29 03:05:10;;;;;;;18.80;10.60;;;;;;;0.65;100.00;98787.44;1787642;80;21362;-73
2020/12/29 03:07:38;;;;;;;25.00;11.60;;;;;;;0.65;100.00;98798.79;1787561;80;21976;-74
2020/12/29 03:10:08;;;;;;;18.98;10.55;;;;;;;0.65;100.00;98782.04;1787565;78;20989;-74
2020/12/29 03:12:42;;;;;;;21.07;10.85;;;;;;;0.67;100.00;98750.70;1792904;80;21016;-75
2020/12/29 03:15:10;;;;;;;18.05;9.85;;;;;;;0.67;100.00;98758.81;1765299;80;21047;-74
2020/12/29 03:17:37;;;;;;;19.07;10.43;;;;;;;0.68;100.00;98784.74;1793491;80;21195;-75
2020/12/29 03:20:05;;;;;;;23.07;11.03;;;;;;;0.68;100.00;98771.23;1793446;80;21000;-74
2020/12/29 03:22:33;;;;;;;19.20;10.23;;;;;;;0.69;100.00;98754.48;1793440;80;21575;-75
2020/12/29 03:25:01;;;;;;;22.93;12.03;;;;;;;0.68;100.00;98760.97;1793466;80;20915;-73
2020/12/29 03:27:28;;;;;;;19.42;11.53;;;;;;;0.69;100.00;98761.24;1793596;80;21468;-73
2020/12/29 03:29:56;;;;;;;21.70;11.93;;;;;;;0.69;100.00;98755.84;1793443;80;21200;-74
2020/12/29 03:32:24;;;;;;;20.17;10.90;;;;;;;0.70;100.00;98764.22;1793672;80;21479;-75
2020/12/29 03:34:52;;;;;;;18.32;10.20;;;;;;;0.68;100.00;98767.19;1793743;80;20929;-76
2020/12/29 03:37:19;;;;;;;19.75;10.85;;;;;;;0.68;100.00;98771.78;1793700;80;21488;-73
2020/12/29 03:39:47;;;;;;;23.20;11.38;;;;;;;0.68;100.00;98752.33;1793685;78;21464;-75
2020/12/29 03:42:15;;;;;;;21.42;11.97;;;;;;;0.66;100.00;98739.09;1793621;80;21189;-74
2020/12/29 03:44:44;;;;;;;24.18;11.22;;;;;;;0.65;100.00;98739.36;1793560;78;21645;-74
2020/12/29 03:47:12;;;;;;;22.45;11.48;;;;;;;0.65;100.00;98729.37;1793593;80;21039;-74
2020/12/29 03:49:40;;;;;;;24.27;12.45;;;;;;;0.65;100.00;98752.33;1793589;80;20910;-73
2020/12/29 03:52:07;;;;;;;19.40;11.10;;;;;;;0.64;100.00;98752.06;1793659;80;21040;-77
2020/12/29 03:54:35;;;;;;;25.23;10.93;;;;;;;0.63;100.00;98742.87;1793638;80;21201;-74
2020/12/29 03:57:02;;;;;;;22.90;11.85;;;;;;;0.62;100.00;98744.77;1793526;80;21151;-75
2020/12/29 03:59:30;;;;;;;22.67;12.10;;;;;;;0.62;100.00;98719.11;1793585;80;21447;-77
2020/12/29 04:01:58;;;;;;;24.37;12.37;;;;;;;0.62;100.00;98707.48;1793606;80;20930;-75
2020/12/29 04:04:25;;;;;;;25.10;13.30;;;;;;;0.63;100.00;98698.30;1793651;80;20996;-77
2020/12/29 04:06:53;;;;;;;28.07;13.30;;;;;;;0.61;100.00;98706.68;1793611;80;21355;-76
2020/12/29 04:09:30;;;;;;;26.80;12.90;;;;;;;0.59;100.00;98701.28;1793541;80;21511;-78
2020/12/29 04:11:58;;;;;;;22.15;11.18;;;;;;;0.59;100.00;98685.88;1803322;78;20928;-77
2020/12/29 04:14:26;;;;;;;23.70;11.20;;;;;;;0.60;100.00;98679.41;1813496;79;20980;-77
2020/12/29 04:16:55;;;;;;;26.73;12.25;;;;;;;0.57;100.00;98694.02;1812850;77;21118;-77
2020/12/29 04:19:23;;;;;;;27.00;13.28;;;;;;;0.55;100.00;98701.58;1812433;79;22072;-77
2020/12/29 04:21:50;;;;;;;22.87;12.15;;;;;;;0.55;100.00;98699.69;1812166;79;21489;-75
2020/12/29 04:24:20;;;;;;;24.98;12.65;;;;;;;0.54;100.00;98705.36;1812552;79;21016;-77
2020/12/29 04:26:48;;;;;;;22.15;11.70;;;;;;;0.51;100.00;98704.02;1813374;79;20928;-78
2020/12/29 04:29:16;;;;;;;27.15;13.78;;;;;;;0.48;100.00;98685.65;1813599;79;21134;-77
2020/12/29 04:31:47;;;;;;;27.60;12.95;;;;;;;0.47;100.00;98679.17;1813459;79;22069;-77
2020/12/29 04:34:15;;;;;;;22.77;12.13;;;;;;;0.45;100.00;98671.88;1811797;79;21007;-76
2020/12/29 04:36:43;;;;;;;21.40;11.68;;;;;;;0.43;100.00;98676.20;1811759;79;20980;-81
2020/12/29 04:39:10;;;;;;;23.20;11.75;;;;;;;0.40;100.00;98687.54;1811907;79;20932;-79
2020/12/29 04:41:39;;;;;;;22.85;12.18;;;;;;;0.38;100.00;98694.29;1811766;79;21059;-79
2020/12/29 04:44:07;;;;;;;20.08;11.57;;;;;;;0.35;100.00;98684.03;1811844;79;21421;-80
2020/12/29 04:46:35;;;;;;;21.77;12.40;;;;;;;0.30;100.00;98698.34;1811755;79;20999;-76
2020/12/29 04:49:02;;;;;;;23.38;12.70;;;;;;;0.28;100.00;98686.45;1811356;78;20936;-74
2020/12/29 04:51:30;;;;;;;21.15;11.65;;;;;;;0.27;100.00;98683.48;1784950;79;21573;-75
2020/12/29 04:53:59;;;;;;;21.70;12.10;;;;;;;0.26;100.00;98686.45;1811862;79;21495;-74
2020/12/29 04:56:33;;;;;;;21.00;10.72;;;;;;;0.24;100.00;98693.47;1811789;79;21197;-74
2020/12/29 04:59:03;;;;;;;22.77;11.45;;;;;;;0.22;100.00;98703.73;1811860;78;21074;-77
2020/12/29 05:01:33;;;;;;;20.15;11.25;;;;;;;0.20;100.00;98710.47;1811958;78;20928;-77
2020/12/29 05:04:02;;;;;;;23.98;12.37;;;;;;;0.20;100.00;98709.12;1812164;79;20944;-77
2020/12/29 05:06:30;;;;;;;21.60;11.50;;;;;;;0.19;100.00;98711.02;1812143;79;21050;-74
2020/12/29 05:08:58;;;;;;;23.95;11.12;;;;;;;0.19;100.00;98701.56;1812121;77;21498;-77
2020/12/29 05:11:27;;;;;;;20.37;10.98;;;;;;;0.19;100.00;98696.70;1809963;79;21213;-76
2020/12/29 05:13:55;;;;;;;25.25;11.18;;;;;;;0.19;100.00;98696.70;1783151;79;21549;-74
2020/12/29 05:16:22;;;;;;;25.85;12.18;;;;;;;0.18;100.00;98691.03;1798281;79;21850;-80
2020/12/29 05:18:51;;;;;;;23.57;11.48;;;;;;;0.17;100.00;98692.92;1798355;79;21047;-76
2020/12/29 05:21:19;;;;;;;22.07;11.95;;;;;;;0.17;100.00;98695.63;1798312;79;21366;-74
2020/12/29 05:23:47;;;;;;;25.50;11.78;;;;;;;0.17;100.00;98678.62;1798264;78;21011;-76
2020/12/29 05:26:14;;;;;;;22.93;12.35;;;;;;;0.17;100.00;98681.32;1757570;79;21134;-74
2020/12/29 05:28:44;;;;;;;24.05;11.50;;;;;;;0.17;100.00;98687.53;1782814;79;21482;-74
2020/12/29 05:31:12;;;;;;;25.20;12.13;;;;;;;0.19;100.00;98675.92;1783233;79;21066;-75
2020/12/29 05:33:39;;;;;;;22.87;11.35;;;;;;;0.20;100.00;98666.75;1798379;79;20928;-77
2020/12/29 05:36:07;;;;;;;21.70;12.15;;;;;;;0.19;100.00;98663.78;1798274;79;21577;-75
2020/12/29 05:38:41;;;;;;;23.75;11.65;;;;;;;0.17;100.00;98663.23;1757588;79;20972;-73
2020/12/29 05:41:13;;;;;;;26.05;12.75;;;;;;;0.16;100.00;98656.75;1798326;78;20892;-75
2020/12/29 05:43:42;;;;;;;25.97;11.93;;;;;;;0.15;100.00;98652.44;1797556;79;21173;-74
2020/12/29 05:46:10;;;;;;;23.27;12.23;;;;;;;0.17;100.00;98650.28;1782057;79;21306;-73
2020/12/29 05:48:37;;;;;;;22.90;12.35;;;;;;;0.18;100.00;98646.50;1757173;79;20947;-75
2020/12/29 05:51:14;;;;;;;25.43;11.65;;;;;;;0.15;100.00;98649.20;1797385;79;21121;-75
2020/12/29 05:53:43;;;;;;;21.35;10.93;;;;;;;0.13;100.00;98632.47;1797543;79;21565;-75
2020/12/29 05:56:11;;;;;;;29.45;12.75;;;;;;;0.14;100.00;98646.77;1756945;79;21082;-75
2020/12/29 05:58:38;;;;;;;19.35;10.43;;;;;;;0.14;100.00;98649.47;1756840;79;21557;-75
2020/12/29 06:01:05;;;;;;;23.12;12.33;;;;;;;0.15;100.00;98651.09;1782264;79;21114;-74
2020/12/29 06:03:33;;;;;;;20.35;10.48;;;;;;;0.15;100.00;98641.10;1797551;79;20996;-75
2020/12/29 06:06:01;;;;;;;22.73;10.38;;;;;;;0.16;100.00;98651.36;1782709;79;21066;-76
2020/12/29 06:08:28;;;;;;;24.52;11.30;;;;;;;0.14;100.00;98650.81;1782931;78;21043;-75
2020/12/29 06:10:59;;;;;;;19.98;10.75;;;;;;;0.13;100.00;98662.16;1798207;78;21403;-75
2020/12/29 06:13:28;;;;;;;21.27;10.75;;;;;;;0.13;100.00;98659.99;1797920;79;21561;-75
2020/12/29 06:15:59;;;;;;;21.85;10.13;;;;;;;0.13;100.00;98667.55;1783139;79;21537;-75
2020/12/29 06:18:37;;;;;;;21.62;10.48;;;;;;;0.14;100.00;98679.16;1798442;79;20924;-76
2020/12/29 06:21:06;;;;;;;22.22;10.20;;;;;;;0.15;100.00;98661.88;1798395;79;21070;-75
2020/12/29 06:23:43;;;;;;;21.17;10.13;;;;;;;0.16;100.00;98659.45;1798502;79;21196;-75
2020/12/29 06:26:17;;;;;;;18.67;9.30;;;;;;;0.19;100.00;98653.52;1797990;79;21529;-75
2020/12/29 06:28:52;;;;;;;19.07;8.35;;;;;;;0.21;100.00;98656.76;1782738;79;20952;-75
2020/12/29 06:31:27;;;;;;;18.90;8.53;;;;;;;0.20;100.00;98674.03;1798337;79;21810;-75
2020/12/29 06:33:57;;;;;;;18.40;9.58;;;;;;;0.20;100.00;98679.44;1798270;79;21007;-75
2020/12/29 06:36:28;;;;;;;17.27;8.95;;;;;;;0.21;100.00;98671.60;1798276;79;23582;-75
2020/12/29 06:39:00;;;;;;;18.07;9.03;;;;;;;0.19;100.00;98664.31;1783028;79;21007;-75
2020/12/29 06:41:27;;;;;;;15.83;8.20;;;;;;;0.20;100.00;98665.94;1798416;78;21105;-75
2020/12/29 06:43:55;;;;;;;16.05;8.53;;;;;;;0.21;100.00;98658.92;1737962;81;20985;-74
2020/12/29 06:46:23;;;;;;;14.80;8.20;;;;;;;0.21;100.00;98653.52;1746648;82;21520;-75
2020/12/29 06:48:50;;;;;;;17.07;8.48;;;;;;;0.23;100.00;98650.55;1754996;80;22329;-74
2020/12/29 06:51:20;;;;;;;17.77;9.05;;;;;;;0.23;100.00;98640.56;1754795;81;21064;-74
2020/12/29 06:53:49;;;;;;;15.28;7.80;;;;;;;0.23;100.00;98637.05;1754932;81;20941;-74
2020/12/29 06:56:17;;;;;;;17.02;8.70;;;;;;;0.26;100.00;98647.31;1754814;81;21129;-75
2020/12/29 06:58:46;;;;;;;15.48;7.80;;;;;;;0.28;100.00;98645.96;1730025;81;20989;-76
2020/12/29 07:01:26;;;;;;;13.93;7.45;;;;;;;0.30;100.00;98649.73;1754873;80;21444;-74
2020/12/29 07:04:03;;;;;;;16.32;7.72;;;;;;;0.32;100.00;98655.68;1754929;81;21155;-75
2020/12/29 07:06:35;;;;;;;15.55;8.53;;;;;;;0.34;100.00;98648.12;1754849;81;21072;-75
2020/12/29 07:09:17;;;;;;;17.52;8.35;;;;;;;0.35;100.00;98630.84;1755032;81;21499;-74
2020/12/29 07:12:08;;;;;;;18.17;8.68;;;;;;;0.36;100.00;98633.81;1752504;81;21151;-75
2020/12/29 07:14:37;;;;;;;16.60;8.30;;;;;;;0.39;100.00;98641.38;1750521;82;21388;-75
2020/12/29 07:17:06;;;;;;;14.98;7.45;;;;;;;0.44;100.00;98636.50;1750230;82;21571;-76
2020/12/29 07:19:38;;;;;;;17.10;8.30;;;;;;;0.44;100.00;98644.61;1750414;82;21539;-75
2020/12/29 07:22:19;;;;;;;21.62;9.98;;;;;;;0.46;100.00;98645.14;1727489;82;21583;-75
2020/12/29 07:24:47;;;;;;;14.20;7.27;;;;;;;0.45;100.00;98647.03;1749322;82;20989;-75
2020/12/29 07:27:15;;;;;;;14.78;6.67;;;;;;;0.43;100.00;98643.80;1750291;82;21215;-73
2020/12/29 07:29:56;;;;;;;15.00;7.47;;;;;;;0.46;100.00;98638.39;1750068;82;21195;-73
2020/12/29 07:32:24;;;;;;;15.00;7.75;;;;;;;0.47;100.00;98638.66;1745500;82;21024;-74
2020/12/29 07:34:53;;;;;;;14.80;7.78;;;;;;;0.47;100.00;98620.57;1751909;82;20894;-74
2020/12/29 07:37:22;;;;;;;16.87;7.60;;;;;;;0.49;100.00;98626.52;1751953;82;20948;-74
2020/12/29 07:39:50;;;;;;;14.70;7.97;;;;;;;0.50;100.00;98632.18;1751910;82;21370;-73
2020/12/29 07:42:17;;;;;;;12.93;6.72;;;;;;;0.52;100.00;98630.02;1751886;82;21088;-74
2020/12/29 07:44:45;;;;;;;14.00;7.30;;;;;;;0.54;100.00;98616.24;1751895;82;21159;-75
2020/12/29 07:47:13;;;;;;;17.40;7.70;;;;;;;0.54;100.00;98617.05;1751901;82;21054;-75
2020/12/29 07:49:40;;;;;;;13.13;7.12;;;;;;;0.55;100.00;98615.16;1751926;82;21452;-74
2020/12/29 07:52:08;;;;;;;14.03;7.08;;;;;;;0.54;100.00;98603.55;1751895;82;21176;-74
2020/12/29 07:54:36;;;;;;;14.90;7.12;;;;;;;0.55;100.00;98615.97;1751815;82;21151;-74
2020/12/29 07:57:04;;;;;;;12.13;6.28;;;;;;;0.55;100.00;98605.17;1751990;82;21052;-73
2020/12/29 07:59:31;;;;;;;16.25;7.42;;;;;;;0.57;100.00;98625.15;1728720;82;22044;-74
2020/12/29 08:01:59;;;;;;;13.75;7.30;;;;;;;0.58;100.00;98611.88;1751927;82;20953;-74
2020/12/29 08:04:33;;;;;;;13.80;7.00;;;;;;;0.60;100.00;98605.67;1751913;81;22832;-76
2020/12/29 08:07:08;;;;;;;14.75;7.15;;;;;;;0.64;100.00;98604.84;1751850;82;21507;-77
2020/12/29 08:09:46;;;;;;;15.48;7.12;;;;;;;0.69;100.00;98609.97;1751914;82;20977;-74
2020/12/29 08:12:17;;;;;;;14.50;7.58;;;;;;;0.73;100.00;98606.98;1751386;81;21605;-75
2020/12/29 08:14:44;;;;;;;17.20;7.90;;;;;;;0.75;100.00;98591.31;1748449;82;21016;-75
2020/12/29 08:17:12;;;;;;;13.08;6.72;;;;;;;0.76;100.00;98596.44;1747144;82;21370;-75
2020/12/29 08:19:40;;;;;;;17.45;6.70;;;;;;;0.78;100.00;98594.81;1746835;82;21091;-73
2020/12/29 08:22:09;;;;;;;13.88;7.12;;;;;;;0.78;100.00;98606.44;1746737;82;20962;-79
2020/12/29 08:24:39;;;;;;;14.87;7.22;;;;;;;0.81;100.00;98599.67;1747235;82;20946;-72
2020/12/29 08:27:06;;;;;;;14.25;6.97;;;;;;;0.78;100.00;98594.81;1746806;81;21116;-73
2020/12/29 08:29:34;;;;;;;16.00;8.10;;;;;;;0.78;100.00;98597.52;1746641;82;21383;-72
2020/12/29 08:32:07;;;;;;;13.40;7.03;;;;;;;0.77;100.00;98580.50;1695830;82;21072;-73
2020/12/29 08:34:38;;;;;;;11.88;6.15;;;;;;;0.81;100.00;98565.36;1746735;82;20989;-73
2020/12/29 08:37:10;;;;;;;14.53;7.85;;;;;;;0.85;100.00;98556.16;1746460;82;21115;-73
2020/12/29 08:40:00;;;;;;;13.85;7.05;;;;;;;0.89;100.00;98568.84;1719912;82;21480;-73
2020/12/29 08:42:28;;;;;;;15.20;7.50;;;;;;;0.91;100.00;98553.70;1747368;82;22112;-72
2020/12/29 08:44:55;;;;;;;16.07;7.12;;;;;;;0.90;100.00;98546.68;1748265;82;20964;-72
2020/12/29 08:47:22;;;;;;;14.10;7.37;;;;;;;0.88;100.00;98548.31;1674480;82;21071;-72
2020/12/29 08:49:50;;;;;;;14.83;7.58;;;;;;;0.89;100.00;98544.52;1706085;82;21108;-71
2020/12/29 08:52:31;;;;;;;17.02;7.37;;;;;;;0.91;100.00;98540.20;1731559;82;21222;-74
2020/12/29 08:54:58;;;;;;;13.95;7.22;;;;;;;0.92;100.00;98531.00;1746026;82;21520;-72
2020/12/29 08:57:26;;;;;;;15.10;7.47;;;;;;;0.90;100.00;98527.77;1746351;82;21946;-76
2020/12/29 08:59:54;;;;;;;13.58;7.33;;;;;;;0.90;100.00;98524.52;1746159;82;21184;-74
2020/12/29 09:02:28;;;;;;;12.58;6.78;;;;;;;0.89;100.00;98522.09;1746249;82;22044;-73
2020/12/29 09:04:59;;;;;;;12.20;6.55;;;;;;;0.90;100.00;98529.12;1746370;82;21556;-74
2020/12/29 09:07:28;;;;;;;15.65;8.80;;;;;;;0.90;100.00;98514.25;1746512;82;22191;-74
2020/12/29 09:10:03;;;;;;;13.58;6.55;;;;;;;0.92;100.00;98512.09;1662096;82;21992;-74
2020/12/29 09:12:35;;;;;;;13.65;6.22;;;;;;;0.96;100.00;98502.34;1746445;81;20947;-73
2020/12/29 09:15:07;;;;;;;12.55;6.60;;;;;;;0.98;100.00;98516.38;1746678;82;21157;-76
2020/12/29 09:17:40;;;;;;;12.37;7.05;;;;;;;1.00;100.00;98511.50;1746793;82;21137;-75
2020/12/29 09:20:23;;;;;;;12.37;6.83;;;;;;;1.00;100.00;98519.61;1746463;82;22129;-73
2020/12/29 09:22:53;;;;;;;11.53;6.35;;;;;;;1.02;100.00;98494.47;1746553;82;21176;-74
2020/12/29 09:25:31;;;;;;;8.93;5.12;;;;;;;1.04;100.00;98496.35;1746660;82;21450;-77
2020/12/29 09:28:21;;;;;;;14.53;7.08;;;;;;;1.08;100.00;98495.25;1746452;82;21058;-75
2020/12/29 09:31:04;;;;;;;13.72;7.53;;;;;;;1.11;100.00;98487.94;1746323;82;21624;-73
2020/12/29 09:33:33;;;;;;;16.55;8.00;;;;;;;1.15;100.00;98490.34;1746543;82;21420;-75
2020/12/29 09:36:03;;;;;;;12.37;5.62;;;;;;;1.19;100.00;98487.31;1746538;82;20963;-77
2020/12/29 09:38:32;;;;;;;13.28;7.37;;;;;;;1.21;100.00;98468.91;1746666;82;21062;-71
2020/12/29 09:41:02;;;;;;;12.05;6.92;;;;;;;1.27;100.00;98484.83;1746498;82;20982;-74
2020/12/29 09:43:30;;;;;;;10.25;6.47;;;;;;;1.36;100.00;98463.41;1728898;82;21140;-75
2020/12/29 09:45:59;;;;;;;9.55;5.60;;;;;;;1.43;100.00;98459.03;1718108;83;21429;-75
2020/12/29 09:48:27;;;;;;;8.85;5.08;;;;;;;1.49;100.00;98477.64;1729347;82;21559;-76
2020/12/29 09:50:56;;;;;;;11.00;6.05;;;;;;;1.54;100.00;98480.84;1747645;82;21127;-75
2020/12/29 09:53:25;;;;;;;12.07;6.67;;;;;;;1.54;100.00;98477.59;1746458;80;21179;-76
2020/12/29 09:55:54;;;;;;;11.83;5.20;;;;;;;1.50;100.00;98467.08;1746553;82;21068;-73
2020/12/29 09:58:22;;;;;;;11.15;6.67;;;;;;;1.51;100.00;98480.87;1746549;81;21383;-75
2020/12/29 10:00:50;;;;;;;11.83;6.87;;;;;;;1.49;100.00;98467.36;1746539;81;21048;-74
2020/12/29 10:03:20;;;;;;;11.30;6.40;;;;;;;1.49;100.00;98472.77;1743683;81;21139;-74
2020/12/29 10:05:50;;;;;;;10.98;6.37;;;;;;;1.51;100.00;98453.82;1747959;82;21173;-74
2020/12/29 10:08:18;;;;;;;9.98;5.92;;;;;;;1.54;100.00;98470.84;1748230;82;21052;-73
2020/12/29 10:10:46;;;;;;;12.15;6.37;;;;;;;1.57;100.00;98453.23;1748151;82;22123;-76
2020/12/29 10:13:14;;;;;;;12.43;5.97;;;;;;;1.58;100.00;98440.78;1747905;81;21195;-76
2020/12/29 10:15:41;;;;;;;11.40;6.70;;;;;;;1.62;100.00;98445.88;1747744;82;21111;-72
2020/12/29 10:18:09;;;;;;;12.55;6.25;;;;;;;1.70;100.00;98455.29;1724702;82;21189;-73
2020/12/29 10:20:37;;;;;;;9.50;5.28;;;;;;;1.82;100.00;98448.12;1724429;81;21195;-74
2020/12/29 10:23:05;;;;;;;10.58;5.60;;;;;;;1.90;100.00;98447.50;1747065;82;23585;-76
2020/12/29 10:25:33;;;;;;;13.48;5.97;;;;;;;1.96;100.00;98425.52;1747798;82;21147;-75
2020/12/29 10:28:00;;;;;;;11.93;6.05;;;;;;;2.04;100.00;98417.31;1744930;81;20985;-75
2020/12/29 10:30:28;;;;;;;12.47;6.20;;;;;;;2.13;100.00;98408.01;1708657;82;21051;-72
2020/12/29 10:32:56;;;;;;;11.50;5.37;;;;;;;2.23;100.00;98415.47;1703804;82;21130;-73
2020/12/29 10:35:23;;;;;;;12.93;6.20;;;;;;;2.32;100.00;98410.20;1748107;81;21619;-74
2020/12/29 10:37:54;;;;;;;13.78;6.85;;;;;;;2.38;100.00;98409.04;1747564;82;20942;-73
2020/12/29 10:40:21;;;;;;;14.95;6.00;;;;;;;2.46;100.00;98411.66;1748081;82;21111;-72
2020/12/29 10:42:49;;;;;;;11.48;6.45;;;;;;;2.52;100.00;98405.08;1748055;82;21191;-74
2020/12/29 10:45:17;;;;;;;15.78;7.35;;;;;;;2.56;100.00;98406.91;1748036;82;21156;-74
2020/12/29 10:47:44;;;;;;;16.12;6.75;;;;;;;2.61;100.00;98408.20;1748034;80;23442;-75
2020/12/29 10:50:12;;;;;;;12.58;6.53;;;;;;;2.64;100.00;98417.11;1747976;82;21076;-75
2020/12/29 10:52:39;;;;;;;14.85;7.00;;;;;;;2.68;100.00;98406.48;1747785;82;21607;-76
2020/12/29 10:55:07;;;;;;;14.50;7.20;;;;;;;2.72;100.00;98394.52;1748093;82;22007;-76
2020/12/29 10:57:34;;;;;;;14.20;7.30;;;;;;;2.77;100.00;98397.96;1748130;82;21119;-74
2020/12/29 11:00:03;;;;;;;14.65;7.22;;;;;;;2.80;100.00;98406.86;1739016;82;21208;-74
2020/12/29 11:02:30;;;;;;;13.98;6.70;;;;;;;2.82;100.00;98396.54;1726629;82;21104;-72
2020/12/29 11:04:58;;;;;;;16.27;7.10;;;;;;;2.83;100.00;98405.48;1727312;82;21190;-73
2020/12/29 11:07:26;;;;;;;15.83;6.42;;;;;;;2.83;100.00;98416.32;1726636;82;21126;-73
2020/12/29 11:09:55;;;;;;;13.62;7.03;;;;;;;2.83;100.00;98414.41;1728476;82;21166;-73
2020/12/29 11:12:23;;;;;;;16.07;7.50;;;;;;;2.83;100.00;98396.80;1724458;82;21506;-74
2020/12/29 11:14:51;;;;;;;16.20;8.20;;;;;;;2.83;100.00;98398.16;1734910;82;21253;-73
2020/12/29 11:17:22;;;;;;;18.23;8.30;;;;;;;2.85;100.00;98412.77;1723616;82;21114;-75
2020/12/29 11:19:51;;;;;;;16.37;6.87;;;;;;;2.87;100.00;98417.34;1757998;81;21472;-74
2020/12/29 11:22:21;;;;;;;16.55;8.00;;;;;;;2.88;100.00;98410.27;1708414;83;21203;-75
2020/12/29 11:24:49;;;;;;;16.77;8.68;;;;;;;2.91;100.00;98414.27;1758797;81;21329;-77
2020/12/29 11:27:16;;;;;;;19.75;8.18;;;;;;;2.93;100.00;98408.02;1749883;82;21044;-78
2020/12/29 11:29:44;;;;;;;19.17;9.20;;;;;;;2.96;100.00;98414.20;1745637;82;21073;-78
2020/12/29 11:32:11;;;;;;;18.92;9.23;;;;;;;2.97;100.00;98426.66;1745570;81;21656;-83